Strona główna
METAR-TAF:

METAR-TAF

Lotnisko :

Skyhaven Airport

Rochester, New Hampshire, Stany Zjednoczone

Szerokość geograficzna: 43-16-41N, Długość geograficzna: 070-55-20W, wysokość: 98 m

Aktualna obserwacja pogody

Raport powstał 9 minut temu, godzina 22:51 UTC
Wiatr 10 kt od zachodnio-północny zachód w porywach dochodzący do 16 kt
Temperatura -6°C
Wilgotność 29%
Ciśnienie 1031 hPa
Widzialność: 16.1 km
bezchmurnie

METAR: KDAW 192251Z AUTO 30010G16KT 10SM CLR M06/M21 A3044 RMK AO2 SLP311 T10561206

czas: 18:00 (23:00 UTC)


TAF: brakujący

Obserwacja i prognoza pogody dla ponad 4000 lotnisk (raport METAR i TAF).

Dostępne stacje oznaczono żółtymi i czerwonymi punktami na mapie.

Najedź kursorem aby zobaczyć nazwę stacji.

Kliknij aby zobaczyć obserwacje i prognozy pogody.

Aby zmienić mapę: kliknij na zielony przycisk z czarnym krzyżykiem, aby powiększyć; na zielony przycisk z myślnikiem, aby pomniejszyć; na zielone strzałki, aby przejść do map sąsiednich.


METAR-TAF: